sensor_id;sensor_type;location;lat;lon;timestamp;temperature;humidity
65239;SHT30;51827;51.186;6.926;2024-03-29T00:00:54;19.09;50.72
65239;SHT30;51827;51.186;6.926;2024-03-29T00:01:54;19.09;50.76
65239;SHT30;51827;51.186;6.926;2024-03-29T00:02:55;19.08;50.69
65239;SHT30;51827;51.186;6.926;2024-03-29T00:03:55;19.06;50.72
65239;SHT30;51827;51.186;6.926;2024-03-29T00:04:55;19.05;50.69
65239;SHT30;51827;51.186;6.926;2024-03-29T00:05:55;19.06;50.69
65239;SHT30;51827;51.186;6.926;2024-03-29T00:06:56;19.06;50.64
65239;SHT30;51827;51.186;6.926;2024-03-29T00:07:56;19.08;50.68
65239;SHT30;51827;51.186;6.926;2024-03-29T00:08:56;19.09;50.64
65239;SHT30;51827;51.186;6.926;2024-03-29T00:09:56;19.09;50.62
65239;SHT30;51827;51.186;6.926;2024-03-29T00:10:57;19.06;50.61
65239;SHT30;51827;51.186;6.926;2024-03-29T00:11:57;19.08;50.58
65239;SHT30;51827;51.186;6.926;2024-03-29T00:12:58;19.06;50.62
65239;SHT30;51827;51.186;6.926;2024-03-29T00:13:58;19.08;50.60
65239;SHT30;51827;51.186;6.926;2024-03-29T00:14:58;19.03;50.61
65239;SHT30;51827;51.186;6.926;2024-03-29T00:15:59;19.05;50.54
65239;SHT30;51827;51.186;6.926;2024-03-29T00:16:59;19.06;50.53
65239;SHT30;51827;51.186;6.926;2024-03-29T00:17:59;19.06;50.56
65239;SHT30;51827;51.186;6.926;2024-03-29T00:19:00;19.05;50.54
65239;SHT30;51827;51.186;6.926;2024-03-29T00:20:00;19.02;50.48
65239;SHT30;51827;51.186;6.926;2024-03-29T00:21:00;19.05;50.49
65239;SHT30;51827;51.186;6.926;2024-03-29T00:22:00;19.05;50.45
65239;SHT30;51827;51.186;6.926;2024-03-29T00:23:01;19.05;50.46
65239;SHT30;51827;51.186;6.926;2024-03-29T00:24:01;19.03;50.47
65239;SHT30;51827;51.186;6.926;2024-03-29T00:25:01;19.05;50.41
65239;SHT30;51827;51.186;6.926;2024-03-29T00:26:01;19.03;50.41
65239;SHT30;51827;51.186;6.926;2024-03-29T00:27:02;19.03;50.44
65239;SHT30;51827;51.186;6.926;2024-03-29T00:28:02;19.06;50.34
65239;SHT30;51827;51.186;6.926;2024-03-29T00:29:02;19.02;50.41
65239;SHT30;51827;51.186;6.926;2024-03-29T00:30:03;19.03;50.36
65239;SHT30;51827;51.186;6.926;2024-03-29T00:31:03;19.05;50.38
65239;SHT30;51827;51.186;6.926;2024-03-29T00:32:04;19.02;50.32
65239;SHT30;51827;51.186;6.926;2024-03-29T00:33:05;19.00;50.32
65239;SHT30;51827;51.186;6.926;2024-03-29T00:34:05;19.02;50.32
65239;SHT30;51827;51.186;6.926;2024-03-29T00:35:05;19.02;50.32
65239;SHT30;51827;51.186;6.926;2024-03-29T00:36:06;19.05;50.30
65239;SHT30;51827;51.186;6.926;2024-03-29T00:37:06;19.03;50.30
65239;SHT30;51827;51.186;6.926;2024-03-29T00:38:06;19.02;50.29
65239;SHT30;51827;51.186;6.926;2024-03-29T00:39:07;19.02;50.25
65239;SHT30;51827;51.186;6.926;2024-03-29T00:40:07;19.05;50.24
65239;SHT30;51827;51.186;6.926;2024-03-29T00:41:07;19.03;50.27
65239;SHT30;51827;51.186;6.926;2024-03-29T00:42:08;19.02;50.24
65239;SHT30;51827;51.186;6.926;2024-03-29T00:43:08;19.02;50.24
65239;SHT30;51827;51.186;6.926;2024-03-29T00:44:08;19.00;50.21
65239;SHT30;51827;51.186;6.926;2024-03-29T00:45:09;19.03;50.14
65239;SHT30;51827;51.186;6.926;2024-03-29T00:46:09;19.00;50.14
65239;SHT30;51827;51.186;6.926;2024-03-29T00:47:10;19.00;50.11
65239;SHT30;51827;51.186;6.926;2024-03-29T00:48:10;19.00;50.08
65239;SHT30;51827;51.186;6.926;2024-03-29T00:49:10;19.00;50.03
65239;SHT30;51827;51.186;6.926;2024-03-29T00:50:10;19.00;50.01
65239;SHT30;51827;51.186;6.926;2024-03-29T00:51:11;18.99;50.00
65239;SHT30;51827;51.186;6.926;2024-03-29T00:52:11;18.99;50.00
65239;SHT30;51827;51.186;6.926;2024-03-29T00:53:11;18.98;49.99
65239;SHT30;51827;51.186;6.926;2024-03-29T00:54:11;18.99;49.96
65239;SHT30;51827;51.186;6.926;2024-03-29T00:55:12;19.00;49.94
65239;SHT30;51827;51.186;6.926;2024-03-29T00:56:12;19.00;49.92
65239;SHT30;51827;51.186;6.926;2024-03-29T00:57:12;18.99;49.93
65239;SHT30;51827;51.186;6.926;2024-03-29T00:58:12;18.98;49.91
65239;SHT30;51827;51.186;6.926;2024-03-29T00:59:13;19.02;49.93
65239;SHT30;51827;51.186;6.926;2024-03-29T01:00:13;18.99;49.89
65239;SHT30;51827;51.186;6.926;2024-03-29T01:01:13;18.98;49.85
65239;SHT30;51827;51.186;6.926;2024-03-29T01:02:14;18.98;49.90
65239;SHT30;51827;51.186;6.926;2024-03-29T01:03:14;18.98;49.94
65239;SHT30;51827;51.186;6.926;2024-03-29T01:04:14;18.99;49.87
65239;SHT30;51827;51.186;6.926;2024-03-29T01:05:14;18.99;49.89
65239;SHT30;51827;51.186;6.926;2024-03-29T01:06:15;18.99;49.85
65239;SHT30;51827;51.186;6.926;2024-03-29T01:07:15;18.96;49.85
65239;SHT30;51827;51.186;6.926;2024-03-29T01:08:15;18.98;49.83
65239;SHT30;51827;51.186;6.926;2024-03-29T01:09:15;18.96;49.86
65239;SHT30;51827;51.186;6.926;2024-03-29T01:10:16;18.96;49.79
65239;SHT30;51827;51.186;6.926;2024-03-29T01:11:16;18.95;49.83
65239;SHT30;51827;51.186;6.926;2024-03-29T01:12:16;18.96;49.81
65239;SHT30;51827;51.186;6.926;2024-03-29T01:13:16;18.99;49.82
65239;SHT30;51827;51.186;6.926;2024-03-29T01:14:17;18.94;49.82
65239;SHT30;51827;51.186;6.926;2024-03-29T01:15:17;18.95;49.76
65239;SHT30;51827;51.186;6.926;2024-03-29T01:16:17;18.95;49.75
65239;SHT30;51827;51.186;6.926;2024-03-29T01:17:17;18.94;49.72
65239;SHT30;51827;51.186;6.926;2024-03-29T01:18:18;18.94;49.73
65239;SHT30;51827;51.186;6.926;2024-03-29T01:19:18;18.94;49.73
65239;SHT30;51827;51.186;6.926;2024-03-29T01:20:18;18.92;49.72
65239;SHT30;51827;51.186;6.926;2024-03-29T01:21:18;18.92;49.67
65239;SHT30;51827;51.186;6.926;2024-03-29T01:22:19;18.95;49.69
65239;SHT30;51827;51.186;6.926;2024-03-29T01:23:19;18.91;49.66
65239;SHT30;51827;51.186;6.926;2024-03-29T01:24:19;18.95;49.65
65239;SHT30;51827;51.186;6.926;2024-03-29T01:25:19;18.91;49.64
65239;SHT30;51827;51.186;6.926;2024-03-29T01:26:20;18.92;49.64
65239;SHT30;51827;51.186;6.926;2024-03-29T01:27:20;18.94;49.58
65239;SHT30;51827;51.186;6.926;2024-03-29T01:28:20;18.94;49.60
65239;SHT30;51827;51.186;6.926;2024-03-29T01:29:20;18.94;49.57
65239;SHT30;51827;51.186;6.926;2024-03-29T01:30:21;18.94;49.53
65239;SHT30;51827;51.186;6.926;2024-03-29T01:31:22;18.94;49.48
65239;SHT30;51827;51.186;6.926;2024-03-29T01:32:23;18.94;49.50
65239;SHT30;51827;51.186;6.926;2024-03-29T01:33:23;18.94;49.51
65239;SHT30;51827;51.186;6.926;2024-03-29T01:34:23;18.94;49.50
65239;SHT30;51827;51.186;6.926;2024-03-29T01:35:23;18.89;49.47
65239;SHT30;51827;51.186;6.926;2024-03-29T01:36:24;18.91;49.43
65239;SHT30;51827;51.186;6.926;2024-03-29T01:37:24;18.92;49.43
65239;SHT30;51827;51.186;6.926;2024-03-29T01:38:24;18.92;49.45
65239;SHT30;51827;51.186;6.926;2024-03-29T01:39:24;18.94;49.40
65239;SHT30;51827;51.186;6.926;2024-03-29T01:40:25;18.89;49.43
65239;SHT30;51827;51.186;6.926;2024-03-29T01:41:25;18.94;49.39
65239;SHT30;51827;51.186;6.926;2024-03-29T01:42:25;18.91;49.41
65239;SHT30;51827;51.186;6.926;2024-03-29T01:43:25;18.91;49.35
65239;SHT30;51827;51.186;6.926;2024-03-29T01:44:26;18.88;49.32
65239;SHT30;51827;51.186;6.926;2024-03-29T01:45:26;18.92;49.21
65239;SHT30;51827;51.186;6.926;2024-03-29T01:46:26;18.92;49.26
65239;SHT30;51827;51.186;6.926;2024-03-29T01:47:27;18.89;49.29
65239;SHT30;51827;51.186;6.926;2024-03-29T01:48:27;18.91;49.28
65239;SHT30;51827;51.186;6.926;2024-03-29T01:49:29;18.89;49.31
65239;SHT30;51827;51.186;6.926;2024-03-29T01:50:31;18.91;49.29
65239;SHT30;51827;51.186;6.926;2024-03-29T01:51:34;18.91;49.28
65239;SHT30;51827;51.186;6.926;2024-03-29T01:52:37;18.88;49.27
65239;SHT30;51827;51.186;6.926;2024-03-29T01:53:37;18.86;49.22
65239;SHT30;51827;51.186;6.926;2024-03-29T01:54:37;18.89;49.24
65239;SHT30;51827;51.186;6.926;2024-03-29T01:55:38;18.86;49.22
65239;SHT30;51827;51.186;6.926;2024-03-29T01:56:39;18.86;49.25
65239;SHT30;51827;51.186;6.926;2024-03-29T01:57:40;18.86;49.17
65239;SHT30;51827;51.186;6.926;2024-03-29T01:58:40;18.84;49.19
65239;SHT30;51827;51.186;6.926;2024-03-29T01:59:42;18.86;49.16
65239;SHT30;51827;51.186;6.926;2024-03-29T02:00:50;18.86;49.16
65239;SHT30;51827;51.186;6.926;2024-03-29T02:01:51;18.88;49.14
65239;SHT30;51827;51.186;6.926;2024-03-29T02:02:52;18.85;49.17
65239;SHT30;51827;51.186;6.926;2024-03-29T02:03:52;18.85;49.13
65239;SHT30;51827;51.186;6.926;2024-03-29T02:04:53;18.85;49.13
65239;SHT30;51827;51.186;6.926;2024-03-29T02:05:53;18.84;49.14
65239;SHT30;51827;51.186;6.926;2024-03-29T02:06:54;18.85;49.11
65239;SHT30;51827;51.186;6.926;2024-03-29T02:07:55;18.85;49.02
65239;SHT30;51827;51.186;6.926;2024-03-29T02:08:55;18.85;48.94
65239;SHT30;51827;51.186;6.926;2024-03-29T02:09:55;18.86;48.92
65239;SHT30;51827;51.186;6.926;2024-03-29T02:10:56;18.82;49.03
65239;SHT30;51827;51.186;6.926;2024-03-29T02:11:56;18.82;49.01
65239;SHT30;51827;51.186;6.926;2024-03-29T02:12:56;18.84;48.97
65239;SHT30;51827;51.186;6.926;2024-03-29T02:13:57;18.86;49.04
65239;SHT30;51827;51.186;6.926;2024-03-29T02:14:57;18.84;48.96
65239;SHT30;51827;51.186;6.926;2024-03-29T02:15:57;18.84;48.96
65239;SHT30;51827;51.186;6.926;2024-03-29T02:16:58;18.84;48.92
65239;SHT30;51827;51.186;6.926;2024-03-29T02:17:58;18.85;48.94
65239;SHT30;51827;51.186;6.926;2024-03-29T02:18:58;18.88;48.94
65239;SHT30;51827;51.186;6.926;2024-03-29T02:19:59;18.85;48.93
65239;SHT30;51827;51.186;6.926;2024-03-29T02:20:59;18.85;48.91
65239;SHT30;51827;51.186;6.926;2024-03-29T02:21:59;18.84;48.89
65239;SHT30;51827;51.186;6.926;2024-03-29T02:23:06;18.85;48.93
65239;SHT30;51827;51.186;6.926;2024-03-29T02:24:07;18.85;48.87
65239;SHT30;51827;51.186;6.926;2024-03-29T02:25:08;18.82;48.91
65239;SHT30;51827;51.186;6.926;2024-03-29T02:26:08;18.84;48.86
65239;SHT30;51827;51.186;6.926;2024-03-29T02:27:09;18.82;48.86
65239;SHT30;51827;51.186;6.926;2024-03-29T02:28:09;18.82;48.84
65239;SHT30;51827;51.186;6.926;2024-03-29T02:29:09;18.82;48.91
65239;SHT30;51827;51.186;6.926;2024-03-29T02:30:13;18.86;48.85
65239;SHT30;51827;51.186;6.926;2024-03-29T02:31:14;18.81;48.83
65239;SHT30;51827;51.186;6.926;2024-03-29T02:32:14;18.82;48.78
65239;SHT30;51827;51.186;6.926;2024-03-29T02:33:14;18.84;48.80
65239;SHT30;51827;51.186;6.926;2024-03-29T02:34:14;18.82;48.80
65239;SHT30;51827;51.186;6.926;2024-03-29T02:35:15;18.82;48.79
65239;SHT30;51827;51.186;6.926;2024-03-29T02:36:15;18.82;48.79
65239;SHT30;51827;51.186;6.926;2024-03-29T02:37:15;18.84;48.76
65239;SHT30;51827;51.186;6.926;2024-03-29T02:38:15;18.84;48.69
65239;SHT30;51827;51.186;6.926;2024-03-29T02:39:16;18.82;48.77
65239;SHT30;51827;51.186;6.926;2024-03-29T02:40:16;18.82;48.73
65239;SHT30;51827;51.186;6.926;2024-03-29T02:41:16;18.81;48.69
65239;SHT30;51827;51.186;6.926;2024-03-29T02:42:16;18.82;48.73
65239;SHT30;51827;51.186;6.926;2024-03-29T02:43:17;18.81;48.71
65239;SHT30;51827;51.186;6.926;2024-03-29T02:44:17;18.79;48.69
65239;SHT30;51827;51.186;6.926;2024-03-29T02:45:17;18.81;48.72
65239;SHT30;51827;51.186;6.926;2024-03-29T02:46:17;18.82;48.66
65239;SHT30;51827;51.186;6.926;2024-03-29T02:47:18;18.84;48.72
65239;SHT30;51827;51.186;6.926;2024-03-29T02:48:18;18.81;48.68
65239;SHT30;51827;51.186;6.926;2024-03-29T02:49:18;18.82;48.67
65239;SHT30;51827;51.186;6.926;2024-03-29T02:50:19;18.82;48.63
65239;SHT30;51827;51.186;6.926;2024-03-29T02:51:19;18.81;48.70
65239;SHT30;51827;51.186;6.926;2024-03-29T02:52:19;18.79;48.63
65239;SHT30;51827;51.186;6.926;2024-03-29T02:53:19;18.81;48.69
65239;SHT30;51827;51.186;6.926;2024-03-29T02:54:20;18.79;48.66
65239;SHT30;51827;51.186;6.926;2024-03-29T02:55:20;18.81;48.67
65239;SHT30;51827;51.186;6.926;2024-03-29T02:56:20;18.82;48.61
65239;SHT30;51827;51.186;6.926;2024-03-29T02:57:20;18.79;48.62
65239;SHT30;51827;51.186;6.926;2024-03-29T02:58:21;18.79;48.61
65239;SHT30;51827;51.186;6.926;2024-03-29T02:59:21;18.81;48.62
65239;SHT30;51827;51.186;6.926;2024-03-29T03:00:21;18.79;48.56
65239;SHT30;51827;51.186;6.926;2024-03-29T03:01:22;18.79;48.61
65239;SHT30;51827;51.186;6.926;2024-03-29T03:02:22;18.79;48.60
65239;SHT30;51827;51.186;6.926;2024-03-29T03:03:26;18.79;48.60
65239;SHT30;51827;51.186;6.926;2024-03-29T03:04:26;18.79;48.59
65239;SHT30;51827;51.186;6.926;2024-03-29T03:05:26;18.76;48.60
65239;SHT30;51827;51.186;6.926;2024-03-29T03:06:26;18.79;48.55
65239;SHT30;51827;51.186;6.926;2024-03-29T03:07:27;18.81;48.60
65239;SHT30;51827;51.186;6.926;2024-03-29T03:08:27;18.81;48.61
65239;SHT30;51827;51.186;6.926;2024-03-29T03:09:27;18.79;48.57
65239;SHT30;51827;51.186;6.926;2024-03-29T03:10:27;18.79;48.61
65239;SHT30;51827;51.186;6.926;2024-03-29T03:11:28;18.81;48.56
65239;SHT30;51827;51.186;6.926;2024-03-29T03:12:31;18.81;48.57
65239;SHT30;51827;51.186;6.926;2024-03-29T03:13:31;18.81;48.55
65239;SHT30;51827;51.186;6.926;2024-03-29T03:14:31;18.81;48.50
65239;SHT30;51827;51.186;6.926;2024-03-29T03:15:32;18.78;48.52
65239;SHT30;51827;51.186;6.926;2024-03-29T03:16:32;18.78;48.57
65239;SHT30;51827;51.186;6.926;2024-03-29T03:17:32;18.79;48.59
65239;SHT30;51827;51.186;6.926;2024-03-29T03:18:32;18.81;48.57
65239;SHT30;51827;51.186;6.926;2024-03-29T03:19:33;18.81;48.57
65239;SHT30;51827;51.186;6.926;2024-03-29T03:20:33;18.79;48.64
65239;SHT30;51827;51.186;6.926;2024-03-29T03:21:34;18.79;48.59
65239;SHT30;51827;51.186;6.926;2024-03-29T03:22:35;18.76;48.61
65239;SHT30;51827;51.186;6.926;2024-03-29T03:23:35;18.79;48.63
65239;SHT30;51827;51.186;6.926;2024-03-29T03:24:35;18.76;48.58
65239;SHT30;51827;51.186;6.926;2024-03-29T03:25:35;18.78;48.59
65239;SHT30;51827;51.186;6.926;2024-03-29T03:26:36;18.79;48.63
65239;SHT30;51827;51.186;6.926;2024-03-29T03:27:36;18.78;48.56
65239;SHT30;51827;51.186;6.926;2024-03-29T03:28:36;18.79;48.60
65239;SHT30;51827;51.186;6.926;2024-03-29T03:29:37;18.78;48.58
65239;SHT30;51827;51.186;6.926;2024-03-29T03:30:41;18.79;48.60
65239;SHT30;51827;51.186;6.926;2024-03-29T03:31:41;18.75;48.62
65239;SHT30;51827;51.186;6.926;2024-03-29T03:32:41;18.78;48.62
65239;SHT30;51827;51.186;6.926;2024-03-29T03:33:41;18.79;48.58
65239;SHT30;51827;51.186;6.926;2024-03-29T03:34:42;18.78;48.61
65239;SHT30;51827;51.186;6.926;2024-03-29T03:35:43;18.79;48.59
65239;SHT30;51827;51.186;6.926;2024-03-29T03:36:43;18.78;48.61
65239;SHT30;51827;51.186;6.926;2024-03-29T03:37:43;18.78;48.55
65239;SHT30;51827;51.186;6.926;2024-03-29T03:38:43;18.76;48.57
65239;SHT30;51827;51.186;6.926;2024-03-29T03:39:44;18.81;48.56
65239;SHT30;51827;51.186;6.926;2024-03-29T03:40:44;18.78;48.56
65239;SHT30;51827;51.186;6.926;2024-03-29T03:41:44;18.76;48.57
65239;SHT30;51827;51.186;6.926;2024-03-29T03:42:44;18.78;48.55
65239;SHT30;51827;51.186;6.926;2024-03-29T03:43:45;18.78;48.52
65239;SHT30;51827;51.186;6.926;2024-03-29T03:44:45;18.79;48.53
65239;SHT30;51827;51.186;6.926;2024-03-29T03:45:45;18.76;48.53
65239;SHT30;51827;51.186;6.926;2024-03-29T03:46:45;18.76;48.53
65239;SHT30;51827;51.186;6.926;2024-03-29T03:47:46;18.78;48.56
65239;SHT30;51827;51.186;6.926;2024-03-29T03:48:46;18.78;48.55
65239;SHT30;51827;51.186;6.926;2024-03-29T03:49:46;18.76;48.53
65239;SHT30;51827;51.186;6.926;2024-03-29T03:50:46;18.78;48.58
65239;SHT30;51827;51.186;6.926;2024-03-29T03:51:47;18.78;48.50
65239;SHT30;51827;51.186;6.926;2024-03-29T03:52:47;18.76;48.52
65239;SHT30;51827;51.186;6.926;2024-03-29T03:53:47;18.78;48.56
65239;SHT30;51827;51.186;6.926;2024-03-29T03:54:48;18.78;48.53
65239;SHT30;51827;51.186;6.926;2024-03-29T03:55:48;18.78;48.53
65239;SHT30;51827;51.186;6.926;2024-03-29T03:56:48;18.76;48.53
65239;SHT30;51827;51.186;6.926;2024-03-29T03:57:49;18.76;48.55
65239;SHT30;51827;51.186;6.926;2024-03-29T03:58:49;18.78;48.49
65239;SHT30;51827;51.186;6.926;2024-03-29T03:59:50;18.75;48.51
65239;SHT30;51827;51.186;6.926;2024-03-29T04:00:50;18.75;48.54
65239;SHT30;51827;51.186;6.926;2024-03-29T04:01:50;18.78;48.52
65239;SHT30;51827;51.186;6.926;2024-03-29T04:02:51;18.76;48.52
65239;SHT30;51827;51.186;6.926;2024-03-29T04:03:51;18.78;48.53
65239;SHT30;51827;51.186;6.926;2024-03-29T04:05:52;18.78;48.51
65239;SHT30;51827;51.186;6.926;2024-03-29T04:06:52;18.76;48.52
65239;SHT30;51827;51.186;6.926;2024-03-29T04:07:52;18.78;48.48
65239;SHT30;51827;51.186;6.926;2024-03-29T04:08:52;18.78;48.52
65239;SHT30;51827;51.186;6.926;2024-03-29T04:09:53;18.73;48.48
65239;SHT30;51827;51.186;6.926;2024-03-29T04:10:53;18.76;48.51
65239;SHT30;51827;51.186;6.926;2024-03-29T04:11:53;18.73;48.53
65239;SHT30;51827;51.186;6.926;2024-03-29T04:12:53;18.76;48.46
65239;SHT30;51827;51.186;6.926;2024-03-29T04:13:54;18.76;48.49
65239;SHT30;51827;51.186;6.926;2024-03-29T04:14:54;18.78;48.52
65239;SHT30;51827;51.186;6.926;2024-03-29T04:16:01;18.75;48.53
65239;SHT30;51827;51.186;6.926;2024-03-29T04:17:01;18.75;48.51
65239;SHT30;51827;51.186;6.926;2024-03-29T04:18:02;18.75;48.48
65239;SHT30;51827;51.186;6.926;2024-03-29T04:19:02;18.75;48.42
65239;SHT30;51827;51.186;6.926;2024-03-29T04:20:03;18.75;48.46
65239;SHT30;51827;51.186;6.926;2024-03-29T04:21:04;18.72;48.44
65239;SHT30;51827;51.186;6.926;2024-03-29T04:22:05;18.76;48.47
65239;SHT30;51827;51.186;6.926;2024-03-29T04:23:06;18.76;48.46
65239;SHT30;51827;51.186;6.926;2024-03-29T04:24:06;18.76;48.45
65239;SHT30;51827;51.186;6.926;2024-03-29T04:25:07;18.75;48.39
65239;SHT30;51827;51.186;6.926;2024-03-29T04:26:07;18.75;48.41
65239;SHT30;51827;51.186;6.926;2024-03-29T04:27:08;18.75;48.42
65239;SHT30;51827;51.186;6.926;2024-03-29T04:28:08;18.76;48.41
65239;SHT30;51827;51.186;6.926;2024-03-29T04:29:08;18.75;48.41
65239;SHT30;51827;51.186;6.926;2024-03-29T04:30:09;18.76;48.47
65239;SHT30;51827;51.186;6.926;2024-03-29T04:31:11;18.75;48.42
65239;SHT30;51827;51.186;6.926;2024-03-29T04:32:11;18.76;48.46
65239;SHT30;51827;51.186;6.926;2024-03-29T04:33:12;18.75;48.44
65239;SHT30;51827;51.186;6.926;2024-03-29T04:34:12;18.76;48.35
65239;SHT30;51827;51.186;6.926;2024-03-29T04:35:12;18.75;48.38
65239;SHT30;51827;51.186;6.926;2024-03-29T04:36:12;18.78;48.41
65239;SHT30;51827;51.186;6.926;2024-03-29T04:37:13;18.75;48.41
65239;SHT30;51827;51.186;6.926;2024-03-29T04:38:13;18.75;48.35
65239;SHT30;51827;51.186;6.926;2024-03-29T04:39:13;18.75;48.40
65239;SHT30;51827;51.186;6.926;2024-03-29T04:40:14;18.76;48.35
65239;SHT30;51827;51.186;6.926;2024-03-29T04:41:14;18.75;48.37
65239;SHT30;51827;51.186;6.926;2024-03-29T04:42:14;18.73;48.37
65239;SHT30;51827;51.186;6.926;2024-03-29T04:43:15;18.75;48.37
65239;SHT30;51827;51.186;6.926;2024-03-29T04:44:23;18.75;48.35
65239;SHT30;51827;51.186;6.926;2024-03-29T04:45:24;18.76;48.36
65239;SHT30;51827;51.186;6.926;2024-03-29T04:46:24;18.73;48.36
65239;SHT30;51827;51.186;6.926;2024-03-29T04:47:26;18.76;48.38
65239;SHT30;51827;51.186;6.926;2024-03-29T04:48:26;18.76;48.35
65239;SHT30;51827;51.186;6.926;2024-03-29T04:49:27;18.76;48.32
65239;SHT30;51827;51.186;6.926;2024-03-29T04:50:27;18.75;48.34
65239;SHT30;51827;51.186;6.926;2024-03-29T04:51:27;18.73;48.36
65239;SHT30;51827;51.186;6.926;2024-03-29T04:52:28;18.73;48.33
65239;SHT30;51827;51.186;6.926;2024-03-29T04:53:28;18.75;48.34
65239;SHT30;51827;51.186;6.926;2024-03-29T04:54:28;18.76;48.39
65239;SHT30;51827;51.186;6.926;2024-03-29T04:55:28;18.76;48.35
65239;SHT30;51827;51.186;6.926;2024-03-29T04:56:29;18.75;48.35
65239;SHT30;51827;51.186;6.926;2024-03-29T04:57:29;18.73;48.40
65239;SHT30;51827;51.186;6.926;2024-03-29T04:58:29;18.76;48.37
65239;SHT30;51827;51.186;6.926;2024-03-29T04:59:29;18.75;48.40
65239;SHT30;51827;51.186;6.926;2024-03-29T05:00:29;18.75;48.41
65239;SHT30;51827;51.186;6.926;2024-03-29T05:01:30;18.73;48.39
65239;SHT30;51827;51.186;6.926;2024-03-29T05:02:30;18.75;48.39
65239;SHT30;51827;51.186;6.926;2024-03-29T05:03:30;18.75;48.38
65239;SHT30;51827;51.186;6.926;2024-03-29T05:04:30;18.76;48.41
65239;SHT30;51827;51.186;6.926;2024-03-29T05:05:31;18.75;48.41
65239;SHT30;51827;51.186;6.926;2024-03-29T05:06:31;18.75;48.45
65239;SHT30;51827;51.186;6.926;2024-03-29T05:07:31;18.76;48.41
65239;SHT30;51827;51.186;6.926;2024-03-29T05:08:31;18.78;48.46
65239;SHT30;51827;51.186;6.926;2024-03-29T05:09:32;18.75;48.40
65239;SHT30;51827;51.186;6.926;2024-03-29T05:10:32;18.76;48.39
65239;SHT30;51827;51.186;6.926;2024-03-29T05:11:32;18.76;48.42
65239;SHT30;51827;51.186;6.926;2024-03-29T05:12:33;18.75;48.50
65239;SHT30;51827;51.186;6.926;2024-03-29T05:13:33;18.75;48.48
65239;SHT30;51827;51.186;6.926;2024-03-29T05:14:33;18.76;48.47
65239;SHT30;51827;51.186;6.926;2024-03-29T05:15:34;18.76;48.51
65239;SHT30;51827;51.186;6.926;2024-03-29T05:16:34;18.76;48.49
65239;SHT30;51827;51.186;6.926;2024-03-29T05:17:34;18.78;48.49
65239;SHT30;51827;51.186;6.926;2024-03-29T05:18:34;18.76;48.48
65239;SHT30;51827;51.186;6.926;2024-03-29T05:19:35;18.76;48.53
65239;SHT30;51827;51.186;6.926;2024-03-29T05:20:35;18.78;48.53
65239;SHT30;51827;51.186;6.926;2024-03-29T05:21:35;18.75;48.56
65239;SHT30;51827;51.186;6.926;2024-03-29T05:22:35;18.76;48.55
65239;SHT30;51827;51.186;6.926;2024-03-29T05:23:36;18.76;48.56
65239;SHT30;51827;51.186;6.926;2024-03-29T05:24:36;18.79;48.52
65239;SHT30;51827;51.186;6.926;2024-03-29T05:25:36;18.76;48.59
65239;SHT30;51827;51.186;6.926;2024-03-29T05:26:36;18.75;48.57
65239;SHT30;51827;51.186;6.926;2024-03-29T05:27:37;18.76;48.53
65239;SHT30;51827;51.186;6.926;2024-03-29T05:28:37;18.76;48.60
65239;SHT30;51827;51.186;6.926;2024-03-29T05:29:37;18.78;48.53
65239;SHT30;51827;51.186;6.926;2024-03-29T05:30:38;18.76;48.60
65239;SHT30;51827;51.186;6.926;2024-03-29T05:31:38;18.75;48.59
65239;SHT30;51827;51.186;6.926;2024-03-29T05:32:39;18.76;48.64
65239;SHT30;51827;51.186;6.926;2024-03-29T05:33:42;18.78;48.64
65239;SHT30;51827;51.186;6.926;2024-03-29T05:34:42;18.75;48.58
65239;SHT30;51827;51.186;6.926;2024-03-29T05:35:43;18.76;48.65
65239;SHT30;51827;51.186;6.926;2024-03-29T05:36:43;18.76;48.64
65239;SHT30;51827;51.186;6.926;2024-03-29T05:37:43;18.78;48.65
65239;SHT30;51827;51.186;6.926;2024-03-29T05:38:43;18.75;48.64
65239;SHT30;51827;51.186;6.926;2024-03-29T05:39:44;18.76;48.68
65239;SHT30;51827;51.186;6.926;2024-03-29T05:40:44;18.75;48.66
65239;SHT30;51827;51.186;6.926;2024-03-29T05:41:44;18.78;48.68
65239;SHT30;51827;51.186;6.926;2024-03-29T05:42:45;18.76;48.67
65239;SHT30;51827;51.186;6.926;2024-03-29T05:43:45;18.75;48.68
65239;SHT30;51827;51.186;6.926;2024-03-29T05:44:45;18.76;48.69
65239;SHT30;51827;51.186;6.926;2024-03-29T05:45:45;18.76;48.65
65239;SHT30;51827;51.186;6.926;2024-03-29T05:46:46;18.78;48.69
65239;SHT30;51827;51.186;6.926;2024-03-29T05:47:46;18.76;48.74
65239;SHT30;51827;51.186;6.926;2024-03-29T05:48:46;18.78;48.68
65239;SHT30;51827;51.186;6.926;2024-03-29T05:49:51;18.78;48.70
65239;SHT30;51827;51.186;6.926;2024-03-29T05:50:51;18.76;48.71
65239;SHT30;51827;51.186;6.926;2024-03-29T05:51:51;18.78;48.74
65239;SHT30;51827;51.186;6.926;2024-03-29T05:52:52;18.75;48.73
65239;SHT30;51827;51.186;6.926;2024-03-29T05:53:52;18.76;48.74
65239;SHT30;51827;51.186;6.926;2024-03-29T05:54:52;18.76;48.76
65239;SHT30;51827;51.186;6.926;2024-03-29T05:55:53;18.76;48.82
65239;SHT30;51827;51.186;6.926;2024-03-29T05:56:53;18.75;48.76
65239;SHT30;51827;51.186;6.926;2024-03-29T05:57:53;18.79;48.77
65239;SHT30;51827;51.186;6.926;2024-03-29T05:58:53;18.78;48.78
65239;SHT30;51827;51.186;6.926;2024-03-29T05:59:54;18.78;48.78
65239;SHT30;51827;51.186;6.926;2024-03-29T06:00:54;18.76;48.80
65239;SHT30;51827;51.186;6.926;2024-03-29T06:01:54;18.76;48.81
65239;SHT30;51827;51.186;6.926;2024-03-29T06:02:54;18.75;48.78
65239;SHT30;51827;51.186;6.926;2024-03-29T06:03:55;18.76;48.79
65239;SHT30;51827;51.186;6.926;2024-03-29T06:04:55;18.79;48.78
65239;SHT30;51827;51.186;6.926;2024-03-29T06:05:55;18.79;48.80
65239;SHT30;51827;51.186;6.926;2024-03-29T06:06:56;18.79;48.77
65239;SHT30;51827;51.186;6.926;2024-03-29T06:07:56;18.76;48.76
65239;SHT30;51827;51.186;6.926;2024-03-29T06:08:56;18.79;48.82
65239;SHT30;51827;51.186;6.926;2024-03-29T06:09:57;18.76;48.82
65239;SHT30;51827;51.186;6.926;2024-03-29T06:10:57;18.76;48.80
65239;SHT30;51827;51.186;6.926;2024-03-29T06:11:57;18.75;48.85
65239;SHT30;51827;51.186;6.926;2024-03-29T06:12:57;18.76;48.86
65239;SHT30;51827;51.186;6.926;2024-03-29T06:13:58;18.78;48.83
65239;SHT30;51827;51.186;6.926;2024-03-29T06:14:58;18.79;48.84
65239;SHT30;51827;51.186;6.926;2024-03-29T06:15:58;18.78;48.82
65239;SHT30;51827;51.186;6.926;2024-03-29T06:16:58;18.78;48.80
65239;SHT30;51827;51.186;6.926;2024-03-29T06:17:59;18.78;48.82
65239;SHT30;51827;51.186;6.926;2024-03-29T06:18:59;18.76;48.89
65239;SHT30;51827;51.186;6.926;2024-03-29T06:19:59;18.79;48.86
65239;SHT30;51827;51.186;6.926;2024-03-29T06:21:00;18.76;48.86
65239;SHT30;51827;51.186;6.926;2024-03-29T06:22:00;18.76;48.99
65239;SHT30;51827;51.186;6.926;2024-03-29T06:23:00;18.76;49.06